createdAt,value
2019-03-30T00:00:21.022Z,7.05
2019-03-30T00:02:50.355Z,7.42
2019-03-30T00:05:19.615Z,7.70
2019-03-30T00:07:48.880Z,7.70
2019-03-30T00:10:18.145Z,6.95
2019-03-30T00:12:48.473Z,7.58
2019-03-30T00:15:17.746Z,5.92
2019-03-30T00:17:47.194Z,6.80
2019-03-30T00:20:16.538Z,6.97
2019-03-30T00:22:45.830Z,7.53
2019-03-30T00:25:16.067Z,7.15
2019-03-30T00:27:45.331Z,7.33
2019-03-30T00:30:14.666Z,6.47
2019-03-30T00:32:44.198Z,6.90
2019-03-30T00:35:13.467Z,6.47
2019-03-30T00:37:43.692Z,7.08
2019-03-30T00:40:13.231Z,6.55
2019-03-30T00:42:43.558Z,6.87
2019-03-30T00:45:13.271Z,6.87
2019-03-30T00:47:42.534Z,6.12
2019-03-30T00:50:12.030Z,6.22
2019-03-30T00:52:41.295Z,7.17
2019-03-30T00:55:11.089Z,6.97
2019-03-30T00:57:40.594Z,7.05
2019-03-30T01:00:10.998Z,6.28
2019-03-30T04:01:42.443Z,8.63
2019-03-30T04:04:14.749Z,7.83
2019-03-30T04:06:45.580Z,8.85
2019-03-30T04:09:16.555Z,6.83
2019-03-30T04:11:47.363Z,6.65
2019-03-30T04:14:19.703Z,8.33
2019-03-30T04:16:48.962Z,7.42
2019-03-30T04:19:18.232Z,8.08
2019-03-30T04:21:47.486Z,7.92
2019-03-30T04:24:16.747Z,6.87
2019-03-30T04:26:46.341Z,8.03
2019-03-30T04:29:15.614Z,7.35
2019-03-30T04:31:44.874Z,8.93
2019-03-30T04:34:14.162Z,8.55
2019-03-30T04:36:43.421Z,8.78
2019-03-30T04:39:12.672Z,8.00
2019-03-30T04:41:41.923Z,7.70
2019-03-30T04:44:11.190Z,9.65
2019-03-30T04:46:40.446Z,7.17
2019-03-30T04:49:09.711Z,8.50
2019-03-30T04:51:38.973Z,7.87
2019-03-30T04:54:08.222Z,7.45
2019-03-30T04:56:37.489Z,8.20
2019-03-30T04:59:06.747Z,7.42
2019-03-30T05:01:36.014Z,8.03
2019-03-30T05:04:05.298Z,8.73
2019-03-30T05:06:34.556Z,7.65
2019-03-30T05:09:05.118Z,7.58
2019-03-30T05:11:34.619Z,8.80
2019-03-30T05:14:03.886Z,7.90
2019-03-30T05:16:33.138Z,8.03
2019-03-30T05:19:02.410Z,9.50
2019-03-30T05:21:31.670Z,9.53
2019-03-30T05:24:00.948Z,9.93
2019-03-30T05:26:30.214Z,10.65
2019-03-30T05:28:59.507Z,9.33
2019-03-30T05:31:28.831Z,8.40
2019-03-30T05:33:59.334Z,9.35
2019-03-30T05:36:28.622Z,9.00
2019-03-30T05:38:57.882Z,9.35
2019-03-30T05:41:27.135Z,8.33
2019-03-30T05:43:56.419Z,7.45
2019-03-30T05:46:25.671Z,7.65
2019-03-30T05:48:54.937Z,8.38
2019-03-30T05:51:24.207Z,8.53
2019-03-30T05:53:53.743Z,8.00
2019-03-30T05:56:23.003Z,8.28
2019-03-30T05:58:52.275Z,8.55
2019-03-30T06:01:21.531Z,8.35
2019-03-30T06:03:50.875Z,8.40
2019-03-30T06:06:20.154Z,9.20
2019-03-30T06:08:49.469Z,7.67
2019-03-30T06:11:18.734Z,8.83
2019-03-30T06:13:47.995Z,9.03
2019-03-30T06:16:17.263Z,8.75
2019-03-30T06:18:47.586Z,8.25
2019-03-30T06:21:16.860Z,10.08
2019-03-30T06:23:48.615Z,10.15
2019-03-30T06:26:17.359Z,10.03
2019-03-30T06:28:46.627Z,10.45
2019-03-30T06:31:16.138Z,10.90
2019-03-30T06:33:45.648Z,9.70
2019-03-30T06:36:14.914Z,10.85
2019-03-30T06:38:44.454Z,11.80
2019-03-30T06:41:13.730Z,10.88
2019-03-30T06:43:43.263Z,10.18
2019-03-30T06:46:12.534Z,10.28
2019-03-30T06:48:41.790Z,11.75
2019-03-30T06:51:11.051Z,9.18
2019-03-30T06:53:40.328Z,9.33
2019-03-30T06:56:09.578Z,9.23
2019-03-30T06:58:38.846Z,10.82
2019-03-30T07:01:08.274Z,11.60
2019-03-30T07:03:37.602Z,11.80
2019-03-30T07:06:07.236Z,11.28
2019-03-30T07:08:37.368Z,13.85
2019-03-30T07:11:20.694Z,14.15
2019-03-30T07:13:41.070Z,11.95
2019-03-30T07:16:10.611Z,14.38
2019-03-30T07:18:42.178Z,12.55
2019-03-30T07:21:11.450Z,13.90
2019-03-30T07:23:40.702Z,15.25
2019-03-30T07:26:09.970Z,13.72
2019-03-30T07:28:39.498Z,14.47
2019-03-30T07:31:08.766Z,12.47
2019-03-30T07:33:38.035Z,14.25
2019-03-30T07:36:07.603Z,13.53
2019-03-30T07:38:37.942Z,13.40
2019-03-30T07:41:07.210Z,14.15
2019-03-30T07:43:36.766Z,13.95
2019-03-30T07:46:06.021Z,13.58
2019-03-30T07:48:35.278Z,14.05
2019-03-30T07:51:04.560Z,14.18
2019-03-30T07:53:43.864Z,13.10
2019-03-30T07:56:08.555Z,13.45
2019-03-30T07:58:37.087Z,11.57
2019-03-30T08:01:06.331Z,12.58
2019-03-30T08:03:35.610Z,13.50
2019-03-30T08:06:04.871Z,14.23
2019-03-30T08:08:34.145Z,14.50
2019-03-30T08:11:03.491Z,13.35
2019-03-30T08:13:32.757Z,14.15
2019-03-30T08:16:02.387Z,13.95
2019-03-30T08:18:31.643Z,14.23
2019-03-30T08:21:00.914Z,14.07
2019-03-30T08:23:40.223Z,12.93
2019-03-30T08:26:01.469Z,13.28
2019-03-30T08:28:30.731Z,13.68
2019-03-30T08:30:59.999Z,13.70
2019-03-30T08:33:29.278Z,12.55
2019-03-30T08:35:58.555Z,14.40
2019-03-30T08:38:27.849Z,13.22
2019-03-30T08:40:57.186Z,14.50
2019-03-30T08:43:26.610Z,14.33
2019-03-30T08:45:55.891Z,15.20
2019-03-30T08:48:25.171Z,14.50
2019-03-30T08:50:54.750Z,14.45
2019-03-30T08:53:24.026Z,15.65
2019-03-30T08:55:53.298Z,14.50
2019-03-30T08:58:22.572Z,13.58
2019-03-30T09:00:51.846Z,12.73
2019-03-30T09:03:21.128Z,14.53
2019-03-30T09:05:50.663Z,15.13
2019-03-30T09:08:20.270Z,13.72
2019-03-30T09:10:49.883Z,14.98
2019-03-30T09:13:19.159Z,14.93
2019-03-30T09:15:48.427Z,15.45
2019-03-30T09:18:17.711Z,15.75
2019-03-30T09:20:47.395Z,15.40
2019-03-30T09:23:16.666Z,14.05
2019-03-30T09:25:46.206Z,16.12
2019-03-30T09:28:15.813Z,14.85
2019-03-30T09:30:45.082Z,15.98
2019-03-30T09:33:15.371Z,14.33
2019-03-30T09:35:44.674Z,16.17
2019-03-30T09:38:14.976Z,15.58
2019-03-30T09:40:44.399Z,15.38
2019-03-30T09:43:13.674Z,16.17
2019-03-30T09:45:42.955Z,15.53
2019-03-30T09:48:12.482Z,15.58
2019-03-30T09:50:41.830Z,14.33
2019-03-30T09:53:11.098Z,15.30
2019-03-30T09:55:40.371Z,16.15
2019-03-30T09:58:09.891Z,15.40
2019-03-30T10:00:39.163Z,13.50
2019-03-30T10:03:08.435Z,15.00
2019-03-30T10:05:37.706Z,14.68
2019-03-30T10:08:07.951Z,14.50
2019-03-30T10:10:37.222Z,15.58
2019-03-30T10:13:06.503Z,16.48
2019-03-30T10:15:35.770Z,16.20
2019-03-30T10:18:05.046Z,16.30
2019-03-30T10:20:35.379Z,16.05
2019-03-30T10:23:04.666Z,16.70
2019-03-30T10:25:33.927Z,16.70
2019-03-30T10:28:03.202Z,16.62
2019-03-30T10:30:32.490Z,16.25
2019-03-30T10:33:01.784Z,17.45
2019-03-30T10:35:31.046Z,16.25
2019-03-30T10:38:00.318Z,17.37
2019-03-30T10:40:29.593Z,15.32
2019-03-30T10:42:58.863Z,15.10
2019-03-30T10:45:28.138Z,15.40
2019-03-30T10:47:57.402Z,14.63
2019-03-30T10:50:26.678Z,16.20
2019-03-30T10:52:55.975Z,17.23
2019-03-30T10:55:25.258Z,15.83
2019-03-30T10:57:58.484Z,15.35
2019-03-30T11:00:35.448Z,13.35
2019-03-30T11:03:04.902Z,15.03
2019-03-30T11:05:34.238Z,15.50
2019-03-30T11:08:03.750Z,15.43
2019-03-30T11:10:33.022Z,12.85
2019-03-30T11:13:02.301Z,12.37
2019-03-30T11:15:34.014Z,12.28
2019-03-30T11:18:02.558Z,11.83
2019-03-30T11:20:31.830Z,12.63
2019-03-30T11:23:01.107Z,12.68
2019-03-30T11:25:30.374Z,12.07
2019-03-30T11:27:59.647Z,11.83
2019-03-30T11:30:28.918Z,10.82
2019-03-30T11:32:58.283Z,11.25
2019-03-30T11:35:27.550Z,11.45
2019-03-30T11:37:57.810Z,10.68
2019-03-30T11:40:27.076Z,11.12
2019-03-30T11:42:56.634Z,10.85
2019-03-30T11:45:26.248Z,9.95
2019-03-30T11:47:55.515Z,11.03
2019-03-30T11:50:25.055Z,10.93
2019-03-30T11:52:54.558Z,11.53
2019-03-30T11:55:23.834Z,10.90
2019-03-30T11:57:53.107Z,11.40
2019-03-30T12:00:22.401Z,10.40
2019-03-30T12:02:51.662Z,10.63
2019-03-30T12:05:20.939Z,11.00
2019-03-30T12:07:50.205Z,9.33
2019-03-30T12:10:19.478Z,10.25
2019-03-30T12:12:48.747Z,9.53
2019-03-30T12:15:18.026Z,10.65
2019-03-30T12:17:47.591Z,10.70
2019-03-30T12:20:16.870Z,9.45
2019-03-30T12:22:46.892Z,9.65
2019-03-30T12:25:16.527Z,9.18
2019-03-30T12:27:45.803Z,8.93
2019-03-30T12:30:15.406Z,8.08
2019-03-30T12:32:44.714Z,10.05
2019-03-30T12:35:14.743Z,9.43
2019-03-30T12:37:44.342Z,8.30
2019-03-30T12:40:13.879Z,8.40
2019-03-30T12:42:43.150Z,7.92
2019-03-30T12:45:14.026Z,6.90
2019-03-30T12:47:55.460Z,6.95
2019-03-30T12:50:27.578Z,7.72
2019-03-30T12:52:56.847Z,8.58
2019-03-30T12:55:26.361Z,9.98
2019-03-30T12:57:55.971Z,7.72
2019-03-30T13:00:25.238Z,7.22
2019-03-30T13:02:54.504Z,5.05
2019-03-30T13:05:23.817Z,3.90
2019-03-30T13:07:53.377Z,7.00
2019-03-30T13:10:22.660Z,6.10
2019-03-30T13:12:51.934Z,4.47
2019-03-30T13:15:21.219Z,4.30
2019-03-30T13:17:50.521Z,4.97
2019-03-30T13:20:19.788Z,7.15
2019-03-30T13:22:49.061Z,7.67
2019-03-30T13:25:18.368Z,5.65
2019-03-30T13:27:47.644Z,4.28
2019-03-30T13:30:17.440Z,4.45
2019-03-30T13:32:47.112Z,4.53
2019-03-30T13:35:16.404Z,4.92
2019-03-30T13:37:45.696Z,6.97
2019-03-30T13:40:15.153Z,6.87
2019-03-30T13:42:44.419Z,5.40
2019-03-30T13:45:14.443Z,6.30
2019-03-30T13:47:44.047Z,6.35
2019-03-30T13:50:14.206Z,7.12
2019-03-30T13:52:43.551Z,6.78
2019-03-30T13:55:13.694Z,6.40
2019-03-30T13:57:42.962Z,5.72
2019-03-30T14:00:13.767Z,7.17
2019-03-30T14:02:44.201Z,7.45
2019-03-30T14:05:14.751Z,6.33
2019-03-30T14:07:45.715Z,7.15
2019-03-30T14:10:15.050Z,7.35
2019-03-30T14:12:44.313Z,7.00
2019-03-30T14:15:14.654Z,6.80
2019-03-30T14:17:43.960Z,6.90
2019-03-30T14:20:13.260Z,7.60
2019-03-30T14:22:42.540Z,7.55
2019-03-30T14:25:11.938Z,8.88
2019-03-30T14:27:41.204Z,7.03
2019-03-30T14:30:12.279Z,7.67
2019-03-30T14:32:41.558Z,7.70
2019-03-30T14:35:12.913Z,7.55
2019-03-30T14:37:42.162Z,6.65
2019-03-30T14:40:11.981Z,7.15
2019-03-30T14:42:41.241Z,6.53
2019-03-30T14:45:11.300Z,6.78
2019-03-30T14:47:40.571Z,6.70
2019-03-30T14:50:10.477Z,6.42
2019-03-30T14:52:39.742Z,5.70
2019-03-30T14:55:09.274Z,7.37
2019-03-30T14:57:38.827Z,6.55
2019-03-30T15:00:11.703Z,5.75
2019-03-30T15:02:41.032Z,6.10
2019-03-30T15:05:10.459Z,5.58
2019-03-30T15:07:39.731Z,6.25
2019-03-30T15:10:11.008Z,5.72
2019-03-30T15:12:40.270Z,4.83
2019-03-30T15:15:11.086Z,5.47
2019-03-30T15:17:41.181Z,5.53
2019-03-30T15:20:11.542Z,5.65
2019-03-30T15:22:40.810Z,6.37
2019-03-30T15:25:10.915Z,6.12
2019-03-30T15:27:40.182Z,6.40
2019-03-30T15:30:11.346Z,7.40
2019-03-30T15:32:40.622Z,5.45
2019-03-30T15:35:10.323Z,5.95
2019-03-30T15:37:39.582Z,5.47
2019-03-30T15:40:09.106Z,5.35
2019-03-30T15:42:40.410Z,5.58
2019-03-30T15:45:10.928Z,5.50
2019-03-30T15:47:40.186Z,5.95
2019-03-30T15:50:10.002Z,6.37
2019-03-30T15:52:39.262Z,6.12
2019-03-30T15:55:09.074Z,5.95
2019-03-30T15:57:38.339Z,5.83
2019-03-30T16:00:10.314Z,5.90
2019-03-30T16:02:39.654Z,5.95
2019-03-30T16:05:09.252Z,5.70
2019-03-30T16:07:38.691Z,5.15
2019-03-30T16:10:08.490Z,5.62
2019-03-30T16:12:37.762Z,6.05
2019-03-30T16:15:08.376Z,6.20
2019-03-30T16:17:37.646Z,6.62
2019-03-30T16:20:07.074Z,6.42
2019-03-30T16:22:36.424Z,6.22
2019-03-30T16:25:07.527Z,5.70
2019-03-30T16:27:39.194Z,6.08
2019-03-30T16:30:08.781Z,6.40
2019-03-30T16:32:38.178Z,5.70
2019-03-30T16:35:07.718Z,5.95
2019-03-30T16:37:36.979Z,5.87
2019-03-30T16:40:07.132Z,5.92
2019-03-30T16:42:36.453Z,4.90
2019-03-30T16:45:07.665Z,5.47
2019-03-30T16:47:36.930Z,6.05
2019-03-30T16:50:08.810Z,5.70
2019-03-30T16:52:40.966Z,6.65
2019-03-30T16:55:09.103Z,6.37
2019-03-30T16:57:43.579Z,5.20
2019-03-30T17:00:09.679Z,5.45
2019-03-30T17:02:39.007Z,4.72
2019-03-30T17:05:09.308Z,4.95
2019-03-30T17:07:39.415Z,5.08
2019-03-30T17:10:10.014Z,4.40
2019-03-30T17:12:40.500Z,4.00
2019-03-30T17:15:09.836Z,4.87
2019-03-30T17:17:40.186Z,4.42
2019-03-30T17:20:09.993Z,4.95
2019-03-30T17:22:39.259Z,4.80
2019-03-30T17:25:08.761Z,5.37
2019-03-30T17:27:38.299Z,5.30
2019-03-30T17:30:08.803Z,5.80
2019-03-30T17:32:38.263Z,4.87
2019-03-30T17:35:08.168Z,5.70
2019-03-30T17:37:37.477Z,5.70
2019-03-30T17:40:08.409Z,4.70
2019-03-30T17:42:38.987Z,5.08
2019-03-30T17:45:09.876Z,4.75
2019-03-30T17:47:39.162Z,5.37
2019-03-30T17:50:09.171Z,5.10
2019-03-30T17:52:38.471Z,5.00
2019-03-30T17:55:32.714Z,4.20
2019-03-30T17:58:12.297Z,4.33
2019-03-30T18:00:31.391Z,4.33
2019-03-30T18:03:16.415Z,4.55
2019-03-30T18:05:42.570Z,4.65
2019-03-30T18:08:11.841Z,4.97
2019-03-30T18:10:41.107Z,4.70
2019-03-30T18:13:12.365Z,4.37
2019-03-30T18:15:46.058Z,4.80
2019-03-30T18:18:16.747Z,4.10
2019-03-30T18:20:48.959Z,4.85
2019-03-30T18:23:38.409Z,5.20
2019-03-30T18:26:19.034Z,5.00
2019-03-30T18:28:54.075Z,5.30
2019-03-30T18:31:37.773Z,5.55
2019-03-30T18:34:08.728Z,5.90
2019-03-30T18:36:39.835Z,5.20
2019-03-30T18:39:10.194Z,5.17
2019-03-30T18:41:39.802Z,5.33
2019-03-30T18:44:09.160Z,5.00
2019-03-30T18:46:39.505Z,5.47
2019-03-30T18:49:08.766Z,5.58
2019-03-30T18:51:40.469Z,5.85
2019-03-30T18:54:09.738Z,6.00
2019-03-30T18:56:39.262Z,6.30
2019-03-30T18:59:08.539Z,5.47
2019-03-30T19:01:37.797Z,5.37
2019-03-30T19:04:07.378Z,6.03
2019-03-30T19:06:38.011Z,6.40
2019-03-30T19:09:08.038Z,6.62
2019-03-30T19:11:37.614Z,9.00
2019-03-30T19:14:08.485Z,7.70
2019-03-30T19:16:38.007Z,6.58
2019-03-30T19:19:07.298Z,7.62
2019-03-30T19:21:36.890Z,8.48
2019-03-30T19:24:06.171Z,7.40
2019-03-30T19:26:35.715Z,7.70
2019-03-30T19:29:04.990Z,7.72
2019-03-30T19:31:34.510Z,7.42
2019-03-30T19:34:03.857Z,7.60
2019-03-30T19:36:33.119Z,8.50
2019-03-30T19:39:02.941Z,7.05
2019-03-30T19:41:33.774Z,7.50
2019-03-30T19:44:03.379Z,7.67
2019-03-30T19:46:32.682Z,7.22
2019-03-30T19:49:02.268Z,8.55
2019-03-30T19:51:34.219Z,7.62
2019-03-30T19:54:03.511Z,9.13
2019-03-30T19:56:32.759Z,8.45
2019-03-30T19:59:10.534Z,7.20
2019-03-30T20:01:33.315Z,8.18
2019-03-30T20:04:02.595Z,8.90
2019-03-30T20:06:31.858Z,6.92
2019-03-30T20:09:01.129Z,7.75
2019-03-30T20:11:32.022Z,8.38
2019-03-30T20:14:01.282Z,9.25
2019-03-30T20:16:30.547Z,9.00
2019-03-30T20:19:11.523Z,7.97
2019-03-30T20:21:31.090Z,9.15
2019-03-30T20:24:00.364Z,9.20
2019-03-30T20:26:32.636Z,9.88
2019-03-30T20:29:01.930Z,9.50
2019-03-30T20:31:31.214Z,9.68
2019-03-30T20:34:01.453Z,9.18
2019-03-30T20:36:30.738Z,7.33
2019-03-30T20:39:00.006Z,7.47
2019-03-30T20:41:29.290Z,7.55
2019-03-30T20:43:58.575Z,7.45
2019-03-30T20:46:27.850Z,7.72
2019-03-30T20:48:57.399Z,8.25
2019-03-30T20:51:26.986Z,7.28
2019-03-30T20:53:56.254Z,10.48
2019-03-30T20:56:25.530Z,9.18
2019-03-30T20:58:54.802Z,10.43
2019-03-30T21:01:24.243Z,10.80
2019-03-30T21:03:53.878Z,10.28
2019-03-30T21:06:23.180Z,9.98
2019-03-30T21:08:52.446Z,8.58
2019-03-30T21:11:21.722Z,13.58
2019-03-30T21:13:50.995Z,13.35
2019-03-30T21:16:20.274Z,11.43
2019-03-30T21:18:52.240Z,8.90
2019-03-30T21:21:23.375Z,9.63
2019-03-30T21:23:52.651Z,11.40
2019-03-30T21:26:21.926Z,9.63
2019-03-30T21:28:51.203Z,11.40
2019-03-30T21:31:20.475Z,11.35
2019-03-30T21:33:49.756Z,11.38
2019-03-30T21:36:19.358Z,11.03
2019-03-30T21:38:48.639Z,11.88
2019-03-30T21:41:19.965Z,11.55
2019-03-30T21:43:48.880Z,12.18
2019-03-30T21:46:18.406Z,10.88
2019-03-30T21:48:48.724Z,11.25
2019-03-30T21:51:18.026Z,9.60
2019-03-30T21:53:47.296Z,7.75
2019-03-30T21:56:16.591Z,7.55
2019-03-30T21:58:45.867Z,8.28
2019-03-30T22:01:15.443Z,9.63
2019-03-30T22:03:44.722Z,9.03
2019-03-30T22:06:13.986Z,7.42
2019-03-30T22:08:43.727Z,9.40
2019-03-30T22:11:13.263Z,8.95
2019-03-30T22:13:42.540Z,12.28
2019-03-30T22:16:11.817Z,11.35
2019-03-30T22:18:47.580Z,10.32
2019-03-30T22:25:01.419Z,9.23
2019-03-30T22:27:30.689Z,10.10
2019-03-30T22:29:59.960Z,9.38
2019-03-30T22:32:29.238Z,9.05
2019-03-30T22:34:58.547Z,9.35
2019-03-30T22:37:27.818Z,10.30
2019-03-30T22:39:57.090Z,11.70
2019-03-30T22:42:26.364Z,7.90
2019-03-30T22:44:55.631Z,8.53
2019-03-30T22:47:24.903Z,7.40
2019-03-30T22:49:54.178Z,8.85
2019-03-30T22:52:23.715Z,9.23
2019-03-30T22:54:52.974Z,8.28
2019-03-30T22:57:22.261Z,8.73
2019-03-30T22:59:51.512Z,9.25
2019-03-30T23:02:20.951Z,7.33
2019-03-30T23:04:50.246Z,9.45
2019-03-30T23:07:19.491Z,8.88
2019-03-30T23:09:48.763Z,7.37
2019-03-30T23:12:18.030Z,6.55
2019-03-30T23:14:48.918Z,7.00
2019-03-30T23:17:18.202Z,7.08
2019-03-30T23:19:47.466Z,9.03
2019-03-30T23:22:16.731Z,8.05
2019-03-30T23:25:41.538Z,8.88
2019-03-30T23:28:11.015Z,7.80
2019-03-30T23:30:53.597Z,7.22
2019-03-30T23:33:11.322Z,8.58
2019-03-30T23:35:40.607Z,9.50
2019-03-30T23:38:09.932Z,9.55
2019-03-30T23:40:39.201Z,9.28
2019-03-30T23:43:08.463Z,7.47
2019-03-30T23:45:37.725Z,8.05
2019-03-30T23:48:06.994Z,7.72
2019-03-30T23:50:36.259Z,9.78
2019-03-30T23:53:07.456Z,8.05
2019-03-30T23:55:36.555Z,8.45
2019-03-30T23:58:05.814Z,8.10
